Météo Cheval Rigon

 

Relevés d'aujourd'hui



 

24/4/18
Time         Wind Dir   Wind Spd  Wind Gust   Humidity       Temp   Tot Rain Wind Chill  Dew Point   Barom SL Humidity R Temp Out R Tot Rain R   WindCh R   Dew Pt R SL Barom R Temp Out H Temp Out L  DailyRain   HourRain   24HrRain   RainRate  MonthRain
                          km/hr      km/hr          %         C         mm         C         C         mb       %/hr      C/hr      mm/hr      C/hr      C/hr      mm/hr         C         C         mm         mm         mm      mm/hr         mm
0:00              355          0          0         94       12.7     339.40       12.7       11.8    1020.09        1.7      -0.91      0.000      -0.91      -0.60      0.258       12.7       12.7       8.40       0.00       8.40      0.000      33.60
0:15              355          0          0         95       12.8     339.40       12.8       12.1    1020.19        2.2      -0.60      0.000      -0.60      -0.23      0.290       12.8       12.7       0.00       0.00       8.40      0.000      33.60
0:30              355          0          0         95       12.6     339.40       12.6       11.8    1020.06        1.7      -0.71      0.000      -0.71      -0.41      0.115       12.8       12.6       0.00       0.00       8.40      0.000      33.60
0:45              355          0          0         96       12.8     339.40       12.8       12.2    1019.99        2.1      -0.34      0.000      -0.34       0.01      0.039       12.8       12.6       0.00       0.00       8.40      0.000      33.60
1:00              355          0          2         96       12.9     339.40       12.9       12.3    1019.99        1.6      -0.11      0.000      -0.11       0.16      0.037       12.9       12.6       0.00       0.00       8.40      0.000      33.60
1:15              355          0          2         96       12.7     339.40       12.7       12.1    1019.85        1.2      -0.31      0.000      -0.31      -0.12     -0.088       13.1       12.6       0.00       0.00       8.40      0.000      33.60
1:30              355          0          3         96       12.5     339.40       12.5       11.9    1019.89        0.9      -0.43      0.000      -0.43      -0.27     -0.039       13.1       12.4       0.00       0.00       8.40      0.000      33.60
1:45              355          0          0         96       12.6     339.40       12.6       11.9    1019.79        0.7      -0.29      0.000      -0.29      -0.18     -0.122       13.1       12.4       0.00       0.00       8.40      0.000      33.60
2:00              355          0          3         96       12.0     339.40       12.0       11.4    1019.65        0.5      -0.72      0.000      -0.72      -0.63     -0.206       13.1       12.0       0.00       0.00       8.40      0.000      33.60
2:15              355          2          3         96       11.7     339.40       11.7       11.1    1019.65        0.4      -0.86      0.000      -0.86      -0.79     -0.160       13.1       11.7       0.00       0.00       8.40      0.000      33.60
2:30              355          0          3         96       11.6     339.40       11.6       10.9    1019.52        0.2      -0.79      0.000      -0.79      -0.75     -0.244       13.1       11.6       0.00       0.00       8.40      0.000      33.60
2:45              355          0          3         97       11.7     339.40       11.7       11.2    1019.55        1.0      -0.52      0.000      -0.52      -0.36     -0.150       13.1       11.6       0.00       0.00       8.40      0.000      33.60
3:00              355          0          2         97       12.2     339.40       12.2       11.7    1019.52        0.8       0.06      0.000       0.06       0.18     -0.147       13.1       11.6       0.00       0.00       8.40      0.000      33.60
3:15              355          0          3         98       12.7     339.40       12.7       12.4    1019.45        1.5       0.49      0.000       0.49       0.72     -0.179       13.1       11.6       0.00       0.00       8.40      0.000      33.60
3:30              355          3          3         97       12.8     339.40       12.8       12.3    1019.35        0.4       0.48      0.000       0.48       0.53     -0.235       13.1       11.6       0.00       0.00       8.40      0.000      33.60
3:45              355          0          3         97       12.7     339.40       12.7       12.2    1019.45        0.3       0.28      0.000       0.28       0.32     -0.098       13.1       11.6       0.00       0.00       8.40      0.000      33.60
4:00              355          0          3         97       12.7     339.40       12.7       12.2    1019.45        0.2       0.21      0.000       0.21       0.24     -0.078       13.1       11.6       0.00       0.00       8.40      0.000      33.60
4:15              355          0          3         97       12.7     339.40       12.7       12.2    1019.45        0.2       0.17      0.000       0.17       0.20     -0.058       13.1       11.6       0.00       0.00       8.40      0.000      33.60
4:30              355          0          0         96       12.3     339.40       12.3       11.7    1019.41       -0.8      -0.23      0.000      -0.23      -0.36     -0.066       13.1       11.6       0.00       0.00       8.40      0.000      33.60
4:45              355          2          2         96       11.6     339.40       11.6       11.0    1019.31       -0.6      -0.76      0.000      -0.76      -0.86     -0.140       13.1       11.6       0.00       0.00       8.40      0.000      33.60
5:00              355          2          3         96       11.4     339.40       11.4       10.8    1019.21       -0.5      -0.79      0.000      -0.79      -0.86     -0.199       13.1       11.4       0.00       0.00       8.40      0.000      33.60
5:15              355          0          3         96       11.2     339.40       11.2       10.6    1019.24       -0.4      -0.77      0.000      -0.77      -0.83     -0.127       13.1       11.2       0.00       0.00       8.40      0.000      33.60
5:30              355          0          2         96       11.1     339.40       11.1       10.5    1019.24       -0.3      -0.69      0.000      -0.69      -0.73     -0.099       13.1       11.1       0.00       0.00       8.40      0.000      33.60
5:45              355          0          0         96       10.9     339.40       10.9       10.3    1019.38       -0.2      -0.74      0.000      -0.74      -0.77      0.044       13.1       10.9       0.00       0.00       8.40      0.000      33.60
6:00              355          0          0         97       11.1     339.40       11.1       10.6    1019.35        0.8      -0.41      0.000      -0.41      -0.28      0.004       13.1       10.8       0.00       0.00       8.40      0.000      33.60

 


 

 

 

Retour accueil